KBGR/BGR METAR and TAF weather

Enter ICAO airport designator
Station Type Date Time Source
KBGR METAR 2019/04/18 19:53 UTC NOAA

KBGR 181953Z 17013G22KT 10SM FEW039 OVC060 06/00 A3019 RMK AO2 RAE52 SLP226 P0000 T00560000


Station Type Date Time Source
KBGR Decoded METAR 2019/04/18 19:53 UTC NOAA

BANGOR INT'L AIRPORT, ME, United States (KBGR) 44-48N 068-49W 57M
Apr 18, 2019 - 03:53 PM EDT / 2019.04.18 1953 UTC
Wind: from the S (170 degrees) at 15 MPH (13 KT) gusting to 25 MPH (22 KT):0
Visibility: 10 mile(s):0
Sky conditions: overcast
Precipitation last hour: A trace
Temperature: 42.1 F (5.6 C)
Dew Point: 32.0 F (0.0 C)
Relative Humidity: 67%
Pressure (altimeter): 30.19 in. Hg (1022 hPa)
ob: KBGR 181953Z 17013G22KT 10SM FEW039 OVC060 06/00 A3019 RMK AO2 RAE52 SLP226 P0000 T00560000
cycle: 20

Station Type Date Time Source
KBGR TAF 2019/04/18 18:22 UTC NOAA

TAF KBGR 181720Z 1818/1918 20011KT P6SM BKN060
FM182300 20014G22KT P6SM -RA OVC035
FM190400 20013G21KT 3SM -RA BR OVC007
FM191000 22010G18KT 2SM BR VCSH BKN005
FM191300 23012G20KT 2SM BR BKN006

Example: see airport list